createdAt,value
2022-11-19T00:01:40.480Z,16.40
2022-11-19T00:04:11.486Z,13.90
2022-11-19T00:06:42.344Z,19.20
2022-11-19T00:09:14.507Z,18.40
2022-11-19T00:12:02.917Z,18.10
2022-11-19T00:14:34.846Z,18.60
2022-11-19T00:17:05.868Z,11.90
2022-11-19T00:19:36.810Z,17.50
2022-11-19T00:22:07.641Z,18.40
2022-11-19T00:24:39.655Z,17.00
2022-11-19T00:27:10.561Z,16.70
2022-11-19T00:29:41.675Z,16.80
2022-11-19T00:32:12.442Z,17.90
2022-11-19T00:34:43.662Z,15.00
2022-11-19T00:37:14.966Z,15.50
2022-11-19T00:39:45.747Z,14.60
2022-11-19T00:42:16.555Z,17.00
2022-11-19T00:44:47.457Z,19.00
2022-11-19T00:47:18.638Z,17.30
2022-11-19T00:49:49.519Z,16.20
2022-11-19T00:52:20.631Z,20.20
2022-11-19T00:54:51.467Z,24.40
2022-11-19T00:57:22.525Z,21.20
2022-11-19T00:59:53.260Z,23.30
2022-11-19T01:02:24.111Z,22.50
2022-11-19T01:04:54.974Z,16.80
2022-11-19T01:07:25.818Z,19.00
2022-11-19T01:09:56.609Z,20.00
2022-11-19T01:12:27.481Z,17.50
2022-11-19T01:14:58.383Z,15.20
2022-11-19T01:17:29.508Z,14.70
2022-11-19T01:20:00.463Z,14.50
2022-11-19T01:22:31.292Z,21.10
2022-11-19T01:25:02.082Z,16.00
2022-11-19T01:27:34.266Z,16.20
2022-11-19T01:30:05.771Z,16.20
2022-11-19T01:32:36.758Z,18.20
2022-11-19T01:35:09.630Z,17.60
2022-11-19T01:37:40.666Z,17.70
2022-11-19T01:40:13.872Z,19.50
2022-11-19T01:42:50.839Z,15.50
2022-11-19T01:45:33.448Z,15.40
2022-11-19T01:48:08.771Z,14.50
2022-11-19T01:50:44.141Z,14.20
2022-11-19T01:53:15.943Z,15.60
2022-11-19T01:55:48.046Z,20.30
2022-11-19T01:58:24.105Z,15.70
2022-11-19T02:00:54.948Z,19.10
2022-11-19T02:03:26.752Z,16.40
2022-11-19T02:05:58.268Z,20.40
2022-11-19T02:08:44.045Z,15.30
2022-11-19T02:11:38.605Z,15.20
2022-11-19T02:14:29.492Z,19.70
2022-11-19T02:17:10.885Z,16.90
2022-11-19T02:20:17.095Z,17.00
2022-11-19T02:23:17.564Z,12.40
2022-11-19T02:26:15.519Z,13.70
2022-11-19T02:28:52.629Z,13.90
2022-11-19T02:31:27.154Z,14.50
2022-11-19T02:34:02.860Z,19.80
2022-11-19T02:36:40.473Z,16.00
2022-11-19T02:39:17.878Z,16.80
2022-11-19T02:41:54.922Z,13.10
2022-11-19T02:44:48.849Z,14.00
2022-11-19T02:47:23.567Z,17.50
2022-11-19T02:50:00.559Z,12.50
2022-11-19T02:52:31.588Z,16.70
2022-11-19T02:55:02.429Z,13.60
2022-11-19T02:57:33.262Z,13.10
2022-11-19T03:00:23.993Z,13.70
2022-11-19T03:03:17.771Z,11.50
2022-11-19T03:05:53.470Z,14.50
2022-11-19T03:08:24.654Z,13.50
2022-11-19T03:11:05.903Z,12.30
2022-11-19T03:14:06.036Z,14.60
2022-11-19T03:16:44.101Z,17.30
2022-11-19T03:19:24.522Z,13.10
2022-11-19T03:22:00.913Z,15.40
2022-11-19T03:24:35.401Z,14.30
2022-11-19T03:27:13.286Z,18.60
2022-11-19T03:29:49.876Z,20.50
2022-11-19T03:32:27.229Z,20.80
2022-11-19T03:35:05.600Z,23.80
2022-11-19T03:37:39.981Z,19.50
2022-11-19T03:40:15.696Z,21.30
2022-11-19T03:42:50.507Z,19.00
2022-11-19T03:45:26.124Z,21.30
2022-11-19T03:47:58.533Z,16.80
2022-11-19T03:50:34.095Z,21.00
2022-11-19T03:53:05.337Z,19.50
2022-11-19T03:55:40.809Z,23.30
2022-11-19T04:00:42.971Z,21.00
2022-11-19T04:03:13.913Z,21.40
2022-11-19T04:05:44.800Z,21.40
2022-11-19T04:08:15.774Z,21.50
2022-11-19T04:10:46.769Z,21.50
2022-11-19T04:13:17.695Z,23.40
2022-11-19T04:15:48.666Z,25.30
2022-11-19T04:18:19.571Z,17.90
2022-11-19T04:20:50.547Z,19.20
2022-11-19T04:23:21.493Z,20.30
2022-11-19T04:25:52.417Z,25.70
2022-11-19T04:28:23.409Z,20.90
2022-11-19T04:30:54.760Z,23.40
2022-11-19T04:33:25.762Z,22.30
2022-11-19T04:35:56.730Z,19.70
2022-11-19T04:38:27.707Z,20.50
2022-11-19T04:40:58.675Z,22.90
2022-11-19T04:43:29.574Z,23.10
2022-11-19T04:46:00.620Z,26.20
2022-11-19T04:48:31.527Z,22.60
2022-11-19T04:51:02.556Z,24.10
2022-11-19T04:53:33.562Z,24.50
2022-11-19T04:56:05.052Z,25.20
2022-11-19T04:58:36.340Z,21.60
2022-11-19T05:01:07.873Z,24.10
2022-11-19T05:03:38.941Z,23.60
2022-11-19T05:06:10.643Z,21.70
2022-11-19T05:08:41.736Z,18.80
2022-11-19T05:11:12.773Z,29.10
2022-11-19T05:13:43.820Z,20.80
2022-11-19T05:16:14.848Z,18.50
2022-11-19T05:18:46.099Z,23.10
2022-11-19T05:21:17.249Z,19.00
2022-11-19T05:23:48.201Z,25.30
2022-11-19T05:26:19.121Z,23.30
2022-11-19T05:28:50.176Z,28.60
2022-11-19T05:31:21.121Z,20.80
2022-11-19T05:33:52.098Z,24.20
2022-11-19T05:36:23.073Z,24.40
2022-11-19T05:38:54.108Z,20.40
2022-11-19T05:41:25.123Z,23.40
2022-11-19T05:43:56.082Z,22.70
2022-11-19T05:46:27.048Z,21.20
2022-11-19T05:48:58.190Z,27.50
2022-11-19T05:51:29.130Z,23.80
2022-11-19T05:54:00.330Z,27.40
2022-11-19T05:56:31.465Z,28.90
2022-11-19T05:59:02.582Z,32.00
2022-11-19T06:01:33.757Z,36.90
2022-11-19T06:04:04.744Z,29.80
2022-11-19T06:06:35.752Z,28.70
2022-11-19T06:09:07.084Z,28.60
2022-11-19T06:11:50.692Z,27.00
2022-11-19T06:14:24.080Z,28.50
2022-11-19T06:16:57.114Z,27.00
2022-11-19T06:19:28.742Z,26.90
2022-11-19T06:21:59.817Z,28.20
2022-11-19T06:24:31.093Z,28.90
2022-11-19T06:27:02.678Z,25.40
2022-11-19T06:29:33.638Z,25.40
2022-11-19T06:32:04.714Z,29.20
2022-11-19T06:34:35.682Z,26.90
2022-11-19T06:37:06.736Z,29.40
2022-11-19T06:39:37.649Z,28.20
2022-11-19T06:42:22.497Z,26.50
2022-11-19T06:44:53.524Z,28.10
2022-11-19T06:47:24.511Z,26.60
2022-11-19T06:49:55.464Z,30.90
2022-11-19T06:52:26.644Z,34.80
2022-11-19T06:54:57.639Z,22.40
2022-11-19T06:57:28.673Z,29.50
2022-11-19T06:59:59.664Z,29.10
2022-11-19T07:02:30.703Z,28.60
2022-11-19T07:05:01.812Z,28.50
2022-11-19T07:07:34.813Z,27.50
2022-11-19T07:10:07.328Z,26.90
2022-11-19T07:12:38.463Z,24.80
2022-11-19T07:15:11.598Z,32.50
2022-11-19T07:17:42.997Z,28.30
2022-11-19T07:20:14.850Z,22.20
2022-11-19T07:22:46.111Z,28.70
2022-11-19T07:25:17.431Z,26.60
2022-11-19T07:27:48.405Z,30.40
2022-11-19T07:30:20.297Z,29.60
2022-11-19T07:32:51.307Z,27.00
2022-11-19T07:35:23.029Z,23.70
2022-11-19T07:37:54.108Z,24.60
2022-11-19T07:40:25.812Z,28.40
2022-11-19T07:42:56.766Z,28.40
2022-11-19T07:45:28.498Z,30.80
2022-11-19T07:47:59.465Z,25.10
2022-11-19T07:50:30.443Z,27.20
2022-11-19T07:53:02.122Z,24.10
2022-11-19T07:55:33.122Z,24.60
2022-11-19T07:58:04.499Z,27.50
2022-11-19T08:00:35.502Z,22.80
2022-11-19T08:03:07.629Z,26.00
2022-11-19T08:05:42.246Z,25.50
2022-11-19T08:08:13.550Z,22.20
2022-11-19T08:10:44.611Z,26.20
2022-11-19T08:13:15.707Z,25.80
2022-11-19T08:15:47.198Z,30.10
2022-11-19T08:18:18.385Z,26.20
2022-11-19T08:20:49.531Z,25.10
2022-11-19T08:23:23.114Z,29.10
2022-11-19T08:25:54.338Z,28.50
2022-11-19T08:28:25.351Z,28.90
2022-11-19T08:30:56.479Z,23.90
2022-11-19T08:33:27.479Z,27.70
2022-11-19T08:35:58.722Z,24.60
2022-11-19T08:38:32.280Z,25.20
2022-11-19T08:41:23.136Z,21.10
2022-11-19T08:43:54.259Z,24.70
2022-11-19T08:46:25.351Z,23.40
2022-11-19T08:48:56.589Z,19.90
2022-11-19T08:51:27.624Z,28.30
2022-11-19T08:53:58.799Z,23.00
2022-11-19T08:56:29.812Z,23.30
2022-11-19T08:59:03.002Z,23.90
2022-11-19T09:01:34.573Z,23.60
2022-11-19T09:04:06.165Z,26.50
2022-11-19T09:06:37.976Z,24.40
2022-11-19T09:09:09.217Z,21.00
2022-11-19T09:11:42.937Z,21.40
2022-11-19T09:14:14.380Z,19.20
2022-11-19T09:16:45.393Z,27.10
2022-11-19T09:19:16.467Z,25.10
2022-11-19T09:21:47.614Z,24.20
2022-11-19T09:24:18.837Z,22.40
2022-11-19T09:26:52.795Z,27.00
2022-11-19T09:29:24.736Z,19.80
2022-11-19T09:31:55.744Z,24.20
2022-11-19T09:34:26.731Z,18.80
2022-11-19T09:36:58.601Z,17.80
2022-11-19T09:39:29.658Z,20.90
2022-11-19T09:42:12.852Z,19.10
2022-11-19T09:45:04.195Z,16.80
2022-11-19T09:47:49.537Z,14.70
2022-11-19T09:50:23.606Z,12.70
2022-11-19T09:53:02.486Z,11.60
2022-11-19T09:55:36.913Z,14.90
2022-11-19T09:58:13.375Z,10.40
2022-11-19T10:00:46.369Z,15.20
2022-11-19T10:03:21.660Z,13.90
2022-11-19T10:08:45.148Z,16.10
2022-11-19T10:11:32.629Z,15.30
2022-11-19T10:14:12.766Z,18.30
2022-11-19T10:16:56.089Z,17.00
2022-11-19T10:19:40.814Z,17.10
2022-11-19T10:22:16.482Z,16.20
2022-11-19T10:24:55.332Z,14.10
2022-11-19T10:27:33.946Z,14.20
2022-11-19T10:30:13.946Z,13.70
2022-11-19T10:32:51.601Z,17.00
2022-11-19T10:35:28.357Z,16.40
2022-11-19T10:38:02.382Z,14.20
2022-11-19T10:40:41.737Z,19.10
2022-11-19T10:43:23.887Z,17.30
2022-11-19T10:45:56.890Z,15.90
2022-11-19T10:48:38.397Z,16.90
2022-11-19T10:51:19.468Z,19.40
2022-11-19T10:53:51.830Z,16.10
2022-11-19T10:56:28.966Z,14.80
2022-11-19T10:59:07.138Z,19.50
2022-11-19T11:01:42.158Z,20.80
2022-11-19T11:04:19.487Z,19.50
2022-11-19T11:06:55.687Z,16.80
2022-11-19T11:09:35.254Z,17.60
2022-11-19T11:12:32.261Z,19.10
2022-11-19T11:15:18.634Z,20.00
2022-11-19T11:18:01.953Z,19.10
2022-11-19T11:20:34.124Z,21.60
2022-11-19T11:23:11.514Z,17.90
2022-11-19T11:25:52.122Z,14.80
2022-11-19T11:28:26.021Z,20.10
2022-11-19T11:30:59.856Z,15.10
2022-11-19T11:33:35.130Z,18.90
2022-11-19T11:36:11.018Z,16.40
2022-11-19T11:38:49.171Z,17.80
2022-11-19T11:44:27.214Z,14.00
2022-11-19T11:47:02.730Z,14.30
2022-11-19T11:49:37.077Z,16.20
2022-11-19T11:52:19.255Z,16.60
2022-11-19T11:55:06.104Z,19.60
2022-11-19T11:57:51.234Z,14.80
2022-11-19T12:00:40.270Z,17.60
2022-11-19T12:03:13.870Z,12.80
2022-11-19T12:05:55.598Z,17.20
2022-11-19T12:08:44.313Z,20.60
2022-11-19T12:11:21.756Z,18.30
2022-11-19T12:14:00.079Z,20.30
2022-11-19T12:16:41.986Z,14.90
2022-11-19T12:19:25.573Z,14.80
2022-11-19T12:22:04.830Z,15.00
2022-11-19T12:24:54.582Z,15.70
2022-11-19T12:27:35.403Z,25.60
2022-11-19T12:30:13.747Z,19.80
2022-11-19T12:33:01.946Z,19.50
2022-11-19T12:35:51.555Z,18.60
2022-11-19T12:38:40.110Z,16.50
2022-11-19T12:41:30.457Z,15.30
2022-11-19T12:44:03.976Z,16.10
2022-11-19T12:46:48.021Z,17.80
2022-11-19T12:49:41.677Z,16.40
2022-11-19T12:52:31.323Z,15.90
2022-11-19T12:55:11.020Z,17.90
2022-11-19T12:57:53.074Z,15.80
2022-11-19T13:00:26.995Z,15.60
2022-11-19T13:03:15.144Z,18.90
2022-11-19T13:05:52.185Z,18.30
2022-11-19T13:08:29.397Z,19.00
2022-11-19T13:11:11.273Z,18.40
2022-11-19T13:13:46.542Z,16.00
2022-11-19T13:16:20.909Z,15.30
2022-11-19T13:18:55.168Z,14.50
2022-11-19T13:21:33.093Z,16.30
2022-11-19T13:24:14.793Z,17.50
2022-11-19T13:26:46.433Z,15.40
2022-11-19T13:29:31.152Z,18.50
2022-11-19T13:32:10.435Z,16.30
2022-11-19T13:34:49.548Z,13.50
2022-11-19T13:37:23.882Z,18.40
2022-11-19T13:40:01.777Z,19.50
2022-11-19T13:43:17.219Z,16.60
2022-11-19T13:45:45.983Z,17.80
2022-11-19T13:48:26.810Z,14.00
2022-11-19T13:51:02.627Z,32.00
2022-11-19T13:53:39.300Z,24.60
2022-11-19T13:56:15.513Z,17.00
2022-11-19T13:58:50.597Z,18.00
2022-11-19T14:01:40.326Z,15.00
2022-11-19T14:04:28.221Z,16.40
2022-11-19T14:07:20.866Z,16.40
2022-11-19T14:10:04.446Z,17.80
2022-11-19T14:12:53.763Z,15.50
2022-11-19T14:16:04.046Z,13.20
2022-11-19T14:18:57.668Z,15.70
2022-11-19T14:22:09.352Z,16.10
2022-11-19T14:25:14.466Z,15.20
2022-11-19T14:27:46.157Z,19.20
2022-11-19T14:30:22.234Z,21.70
2022-11-19T14:32:54.494Z,18.90
2022-11-19T14:35:45.534Z,22.60
2022-11-19T14:38:41.893Z,17.90
2022-11-19T14:41:28.170Z,23.20
2022-11-19T14:44:14.433Z,25.20
2022-11-19T14:46:48.809Z,23.20
2022-11-19T14:49:31.774Z,20.00
2022-11-19T14:52:04.235Z,25.20
2022-11-19T14:54:43.812Z,21.90
2022-11-19T14:57:29.674Z,18.70
2022-11-19T15:00:05.668Z,19.60
2022-11-19T15:02:40.812Z,20.70
2022-11-19T15:05:20.846Z,20.00
2022-11-19T15:08:12.842Z,18.40
2022-11-19T15:11:04.304Z,19.30
2022-11-19T15:13:36.708Z,21.80
2022-11-19T15:16:13.776Z,23.20
2022-11-19T15:19:23.912Z,24.00
2022-11-19T15:22:43.854Z,23.50
2022-11-19T15:25:31.288Z,22.50
2022-11-19T15:28:17.943Z,25.20
2022-11-19T15:31:05.502Z,22.40
2022-11-19T15:34:11.597Z,22.80
2022-11-19T15:36:45.990Z,19.90
2022-11-19T15:39:27.302Z,32.10
2022-11-19T15:42:02.727Z,25.40
2022-11-19T15:44:43.998Z,19.20
2022-11-19T15:47:19.326Z,19.70
2022-11-19T15:52:27.257Z,18.30
2022-11-19T15:55:13.237Z,19.90
2022-11-19T15:57:47.089Z,26.00
2022-11-19T16:00:23.119Z,25.30
2022-11-19T16:02:56.321Z,19.10
2022-11-19T16:05:30.843Z,25.30
2022-11-19T16:08:08.624Z,17.50
2022-11-19T16:10:43.622Z,28.00
2022-11-19T16:13:43.398Z,16.70
2022-11-19T16:16:40.679Z,20.40
2022-11-19T16:19:13.950Z,22.40
2022-11-19T16:21:48.951Z,20.30
2022-11-19T16:24:39.891Z,20.50
2022-11-19T16:27:20.137Z,20.40
2022-11-19T16:29:52.079Z,22.10
2022-11-19T16:32:26.545Z,23.00
2022-11-19T16:35:11.645Z,25.80
2022-11-19T16:37:43.560Z,25.10
2022-11-19T16:40:18.684Z,22.30
2022-11-19T16:42:53.887Z,21.20
2022-11-19T16:45:27.947Z,22.70
2022-11-19T16:48:00.905Z,25.00
2022-11-19T16:50:36.118Z,20.00
2022-11-19T16:53:09.613Z,20.60
2022-11-19T16:55:51.410Z,22.20
2022-11-19T16:58:29.003Z,22.50
2022-11-19T17:01:01.800Z,18.40
2022-11-19T17:03:39.708Z,26.00
2022-11-19T17:06:25.700Z,22.00
2022-11-19T17:09:01.738Z,26.60
2022-11-19T17:12:10.532Z,22.20
2022-11-19T17:14:54.724Z,29.30
2022-11-19T17:17:44.510Z,29.60
2022-11-19T17:20:53.014Z,27.50
2022-11-19T17:23:26.211Z,28.40
2022-11-19T17:25:59.196Z,25.30
2022-11-19T17:28:36.522Z,22.40
2022-11-19T17:31:16.033Z,23.20
2022-11-19T17:33:56.687Z,29.60
2022-11-19T17:36:27.991Z,20.50
2022-11-19T17:38:59.472Z,23.50
2022-11-19T17:41:50.298Z,18.10
2022-11-19T17:44:39.264Z,27.60
2022-11-19T17:47:23.288Z,23.30
2022-11-19T17:49:55.259Z,28.80
2022-11-19T17:52:28.192Z,23.70
2022-11-19T17:55:03.651Z,26.40
2022-11-19T18:00:10.728Z,28.20
2022-11-19T18:02:42.005Z,29.00
2022-11-19T18:05:20.930Z,23.90
2022-11-19T18:07:52.348Z,30.40
2022-11-19T18:10:23.452Z,22.50
2022-11-19T18:12:54.770Z,29.20
2022-11-19T18:15:26.072Z,22.60
2022-11-19T18:17:57.253Z,33.60
2022-11-19T18:20:28.404Z,25.00
2022-11-19T18:23:00.180Z,27.50
2022-11-19T18:25:31.470Z,32.50
2022-11-19T18:28:02.718Z,33.50
2022-11-19T18:30:34.127Z,26.80
2022-11-19T18:33:05.370Z,27.40
2022-11-19T18:35:36.636Z,33.30
2022-11-19T18:38:08.546Z,30.20
2022-11-19T18:40:39.660Z,22.10
2022-11-19T18:43:29.072Z,35.00
2022-11-19T18:46:00.696Z,26.10
2022-11-19T18:48:31.887Z,32.40
2022-11-19T18:51:02.956Z,40.40
2022-11-19T18:53:34.144Z,23.90
2022-11-19T18:56:05.654Z,22.60
2022-11-19T18:58:37.116Z,24.80
2022-11-19T19:01:08.297Z,27.40
2022-11-19T19:03:39.612Z,27.90
2022-11-19T19:06:12.093Z,29.20
2022-11-19T19:08:43.270Z,29.90
2022-11-19T19:11:32.812Z,24.30
2022-11-19T19:14:04.216Z,28.70
2022-11-19T19:16:35.576Z,27.30
2022-11-19T19:19:06.946Z,29.20
2022-11-19T19:21:38.538Z,31.30
2022-11-19T19:24:10.646Z,35.20
2022-11-19T19:26:41.770Z,34.90
2022-11-19T19:29:13.063Z,26.80
2022-11-19T19:31:44.314Z,29.70
2022-11-19T19:34:15.600Z,27.80
2022-11-19T19:36:52.930Z,33.50
2022-11-19T19:39:24.913Z,30.30
2022-11-19T19:41:57.289Z,32.60
2022-11-19T19:44:28.688Z,40.70
2022-11-19T19:47:00.962Z,36.70
2022-11-19T19:49:36.047Z,33.90
2022-11-19T19:52:10.335Z,30.30
2022-11-19T19:54:43.067Z,28.50
2022-11-19T19:57:15.758Z,33.30
2022-11-19T19:59:47.009Z,39.00
2022-11-19T20:02:18.482Z,31.70
2022-11-19T20:04:49.656Z,34.10
2022-11-19T20:07:21.177Z,33.40
2022-11-19T20:09:52.349Z,30.90
2022-11-19T20:12:23.621Z,34.40
2022-11-19T20:14:55.438Z,29.70
2022-11-19T20:17:26.885Z,33.80
2022-11-19T20:19:58.523Z,28.00
2022-11-19T20:22:30.742Z,31.00
2022-11-19T20:25:05.505Z,32.20
2022-11-19T20:27:36.851Z,39.10
2022-11-19T20:30:10.321Z,35.70
2022-11-19T20:32:41.545Z,33.00
2022-11-19T20:35:12.706Z,31.70
2022-11-19T20:37:43.927Z,26.60
2022-11-19T20:40:15.357Z,32.20
2022-11-19T20:43:04.334Z,24.90
2022-11-19T20:45:35.861Z,23.70
2022-11-19T20:48:07.573Z,28.30
2022-11-19T20:50:38.952Z,32.50
2022-11-19T20:53:10.153Z,30.20
2022-11-19T20:56:03.817Z,27.40
2022-11-19T20:58:33.211Z,26.50
2022-11-19T21:01:06.243Z,36.90
2022-11-19T21:03:37.633Z,36.20
2022-11-19T21:06:09.813Z,30.90
2022-11-19T21:08:40.893Z,31.10
2022-11-19T21:11:15.674Z,35.10
2022-11-19T21:13:47.137Z,31.50
2022-11-19T21:16:21.086Z,33.80
2022-11-19T21:18:52.914Z,26.60
2022-11-19T21:21:25.224Z,39.10
2022-11-19T21:23:56.910Z,33.30
2022-11-19T21:26:29.346Z,34.20
2022-11-19T21:29:01.442Z,41.20
2022-11-19T21:31:41.804Z,37.40
2022-11-19T21:34:14.497Z,33.30
2022-11-19T21:36:47.050Z,37.40
2022-11-19T21:39:19.678Z,39.60
2022-11-19T21:41:51.379Z,36.10
2022-11-19T21:44:22.492Z,43.40
2022-11-19T21:46:53.705Z,39.60
2022-11-19T21:49:24.773Z,30.40
2022-11-19T21:51:56.052Z,35.80
2022-11-19T21:54:27.171Z,34.40
2022-11-19T21:56:58.474Z,40.10
2022-11-19T21:59:29.720Z,36.20
2022-11-19T22:02:00.856Z,35.40
2022-11-19T22:04:32.120Z,32.30
2022-11-19T22:07:03.523Z,31.00
2022-11-19T22:09:34.907Z,28.60
2022-11-19T22:12:06.550Z,40.90
2022-11-19T22:14:37.877Z,33.10
2022-11-19T22:17:09.362Z,37.90
2022-11-19T22:19:40.407Z,36.40
2022-11-19T22:22:11.723Z,27.10
2022-11-19T22:24:43.026Z,33.80
2022-11-19T22:27:14.684Z,38.70
2022-11-19T22:29:45.839Z,22.60
2022-11-19T22:32:17.024Z,36.70
2022-11-19T22:34:48.261Z,37.30
2022-11-19T22:37:19.976Z,38.40
2022-11-19T22:39:51.146Z,33.10
2022-11-19T22:42:22.334Z,33.40
2022-11-19T22:44:53.765Z,41.40
2022-11-19T22:47:24.796Z,26.30
2022-11-19T22:49:56.060Z,36.30
2022-11-19T22:52:27.104Z,33.40
2022-11-19T22:54:58.434Z,36.50
2022-11-19T22:57:29.764Z,34.10
2022-11-19T23:00:01.039Z,42.70
2022-11-19T23:02:32.310Z,41.90
2022-11-19T23:05:03.500Z,48.80
2022-11-19T23:07:34.722Z,31.80
2022-11-19T23:10:07.225Z,45.50
2022-11-19T23:12:55.888Z,37.70
2022-11-19T23:15:28.656Z,41.70
2022-11-19T23:17:59.902Z,37.20
2022-11-19T23:20:31.403Z,47.40
2022-11-19T23:23:02.618Z,46.80
2022-11-19T23:25:33.619Z,41.80
2022-11-19T23:28:04.918Z,46.70
2022-11-19T23:30:36.340Z,44.90
2022-11-19T23:33:07.363Z,43.60
2022-11-19T23:35:38.646Z,36.00
2022-11-19T23:38:10.402Z,39.60
2022-11-19T23:40:41.738Z,52.50
2022-11-19T23:43:12.828Z,47.30
2022-11-19T23:45:43.862Z,53.80
2022-11-19T23:48:17.055Z,29.00
2022-11-19T23:50:48.025Z,40.10
2022-11-19T23:53:19.019Z,40.90
2022-11-19T23:55:50.352Z,47.00
2022-11-19T23:58:21.395Z,36.20
